createdAt,value
2023-05-19T00:03:13.637Z,98243.50
2023-05-19T00:08:20.164Z,98232.31
2023-05-19T00:13:24.353Z,98237.88
2023-05-19T00:18:29.905Z,98231.72
2023-05-19T00:23:34.751Z,98228.03
2023-05-19T00:28:38.289Z,98218.25
2023-05-19T00:33:41.891Z,98214.84
2023-05-19T00:38:46.708Z,98219.38
2023-05-19T00:43:50.846Z,98211.22
2023-05-19T00:48:54.080Z,98213.66
2023-05-19T00:53:59.322Z,98212.47
2023-05-19T00:59:02.967Z,98206.13
2023-05-19T01:04:09.969Z,98211.41
2023-05-19T01:09:14.919Z,98207.25
2023-05-19T01:14:18.471Z,98212.00
2023-05-19T01:19:51.415Z,98215.41
2023-05-19T01:25:23.861Z,98210.00
2023-05-19T01:30:31.240Z,98205.44
2023-05-19T01:35:36.818Z,98205.56
2023-05-19T01:40:41.902Z,98208.91
2023-05-19T01:45:47.150Z,98211.78
2023-05-19T01:50:50.800Z,98208.66
2023-05-19T01:55:56.107Z,98210.22
2023-05-19T02:01:06.883Z,98218.09
2023-05-19T02:06:19.283Z,98210.59
2023-05-19T02:11:27.322Z,98197.41
2023-05-19T02:16:32.062Z,98201.41
2023-05-19T02:21:35.651Z,98199.16
2023-05-19T02:26:39.081Z,98189.84
2023-05-19T02:31:43.957Z,98190.66
2023-05-19T02:36:49.858Z,98188.72
2023-05-19T02:41:53.291Z,98194.31
2023-05-19T02:46:59.297Z,98196.03
2023-05-19T02:52:02.854Z,98194.13
2023-05-19T02:57:06.896Z,98184.84
2023-05-19T03:02:11.970Z,98184.66
2023-05-19T03:07:15.685Z,98185.16
2023-05-19T03:12:19.076Z,98184.13
2023-05-19T03:17:23.905Z,98184.13
2023-05-19T03:22:27.358Z,98190.22
2023-05-19T03:27:30.950Z,98185.72
2023-05-19T03:32:38.051Z,98183.94
2023-05-19T03:37:42.403Z,98191.09
2023-05-19T03:42:45.866Z,98188.91
2023-05-19T03:47:51.066Z,98194.84
2023-05-19T03:53:23.506Z,98194.28
2023-05-19T03:58:27.110Z,98195.25
2023-05-19T04:03:31.926Z,98202.69
2023-05-19T04:08:35.340Z,98203.34
2023-05-19T04:13:39.149Z,98191.72
2023-05-19T04:18:45.643Z,98194.56
2023-05-19T04:23:49.057Z,98199.53
2023-05-19T04:28:52.805Z,98205.41
2023-05-19T04:33:57.637Z,98212.03
2023-05-19T04:39:02.690Z,98213.25
2023-05-19T04:44:07.609Z,98210.50
2023-05-19T04:49:14.636Z,98208.13
2023-05-19T04:54:18.669Z,98208.75
2023-05-19T04:59:23.699Z,98210.25
2023-05-19T05:04:28.925Z,98203.47
2023-05-19T05:09:32.410Z,98203.25
2023-05-19T05:14:37.852Z,98195.41
2023-05-19T05:19:43.374Z,98196.16
2023-05-19T05:24:47.336Z,98199.91
2023-05-19T05:29:51.646Z,98201.41
2023-05-19T05:34:58.247Z,98203.91
2023-05-19T05:40:02.063Z,98196.72
2023-05-19T05:45:08.736Z,98188.34
2023-05-19T05:50:15.388Z,98190.22
2023-05-19T05:55:19.875Z,98190.53
2023-05-19T06:00:25.147Z,98193.38
2023-05-19T06:05:31.127Z,98193.09
2023-05-19T06:10:35.908Z,98187.72
2023-05-19T06:15:43.168Z,98186.44
2023-05-19T06:20:55.063Z,98185.44
2023-05-19T06:25:58.862Z,98177.69
2023-05-19T06:31:02.431Z,98172.38
2023-05-19T06:36:28.160Z,98163.56
2023-05-19T06:41:34.616Z,98176.22
2023-05-19T06:46:38.170Z,98174.19
2023-05-19T06:51:43.360Z,98168.94
2023-05-19T06:56:46.648Z,98171.81
2023-05-19T07:01:51.633Z,98163.72
2023-05-19T07:06:56.622Z,98166.53
2023-05-19T07:12:01.550Z,98164.09
2023-05-19T07:17:06.571Z,98167.59
2023-05-19T07:22:13.870Z,98166.13
2023-05-19T07:27:17.401Z,98167.16
2023-05-19T07:32:21.001Z,98164.06
2023-05-19T07:37:26.418Z,98152.81
2023-05-19T07:42:29.718Z,98161.13
2023-05-19T07:47:33.140Z,98157.72
2023-05-19T07:52:38.005Z,98150.84
2023-05-19T07:57:41.602Z,98149.34
2023-05-19T08:02:45.095Z,98148.41
2023-05-19T08:07:50.153Z,98143.25
2023-05-19T08:12:53.447Z,98144.53
2023-05-19T08:17:56.739Z,98146.06
2023-05-19T08:23:01.620Z,98140.91
2023-05-19T08:28:05.243Z,98136.19
2023-05-19T08:33:08.673Z,98132.75
2023-05-19T08:38:13.465Z,98126.69
2023-05-19T08:43:16.922Z,98124.50
2023-05-19T08:48:21.175Z,98118.75
2023-05-19T08:58:53.240Z,98107.53
2023-05-19T09:03:57.602Z,98096.69
2023-05-19T09:09:03.432Z,98097.97
2023-05-19T09:14:07.101Z,98089.00
2023-05-19T09:19:16.187Z,98086.75
2023-05-19T09:24:21.777Z,98084.22
2023-05-19T09:29:25.497Z,98083.38
2023-05-19T09:34:28.845Z,98085.13
2023-05-19T09:39:33.653Z,98082.13
2023-05-19T09:44:37.432Z,98087.84
2023-05-19T09:49:48.377Z,98076.94
2023-05-19T09:54:53.902Z,98084.75
2023-05-19T09:59:58.431Z,98068.63
2023-05-19T10:05:02.710Z,98071.50
2023-05-19T10:10:11.206Z,98057.19
2023-05-19T10:15:16.416Z,98045.16
2023-05-19T10:20:20.092Z,98041.66
2023-05-19T10:25:24.867Z,98048.09
2023-05-19T10:30:38.688Z,98044.06
2023-05-19T10:35:53.165Z,98047.38
2023-05-19T10:41:04.373Z,98041.06
2023-05-19T10:46:07.728Z,98035.09
2023-05-19T10:51:12.450Z,98029.28
2023-05-19T10:56:33.154Z,98021.94
2023-05-19T11:01:39.702Z,98022.22
2023-05-19T11:06:52.515Z,98019.09
2023-05-19T11:11:57.443Z,98016.56
2023-05-19T11:17:01.595Z,98018.53
2023-05-19T11:22:12.460Z,98003.94
2023-05-19T11:27:26.436Z,98004.44
2023-05-19T11:32:30.872Z,98004.56
2023-05-19T11:37:34.740Z,97990.38
2023-05-19T11:42:39.672Z,97987.88
2023-05-19T11:48:00.872Z,97990.53
2023-05-19T11:53:05.676Z,97988.75
2023-05-19T11:58:11.112Z,97992.41
2023-05-19T12:03:14.628Z,98003.41
2023-05-19T12:08:18.611Z,97992.97
2023-05-19T12:13:23.796Z,97999.59
2023-05-19T12:18:30.767Z,97996.97
2023-05-19T12:23:34.847Z,97989.47
2023-05-19T12:28:40.090Z,97977.03
2023-05-19T12:33:43.524Z,97971.00
2023-05-19T12:38:47.845Z,97970.22
2023-05-19T12:43:52.963Z,97976.13
2023-05-19T12:49:00.829Z,97986.72
2023-05-19T12:54:04.270Z,97977.84
2023-05-19T12:59:09.144Z,97988.22
2023-05-19T13:04:12.794Z,97987.72
2023-05-19T13:09:17.446Z,97994.31
2023-05-19T13:14:22.316Z,97978.34
2023-05-19T13:19:26.211Z,97977.75
2023-05-19T13:24:29.715Z,97973.72
2023-05-19T13:29:34.421Z,97967.88
2023-05-19T13:34:37.957Z,97955.28
2023-05-19T13:39:41.652Z,97964.16
2023-05-19T13:44:47.053Z,97955.72
2023-05-19T13:49:50.608Z,97954.25
2023-05-19T13:54:54.690Z,97946.44
2023-05-19T14:00:03.132Z,97953.34
2023-05-19T14:05:15.265Z,97949.31
2023-05-19T14:10:19.791Z,97945.78
2023-05-19T14:15:24.401Z,97956.66
2023-05-19T14:20:29.232Z,97947.88
2023-05-19T14:25:33.304Z,97960.41
2023-05-19T14:30:38.215Z,97942.41
2023-05-19T14:35:41.976Z,97938.84
2023-05-19T14:40:45.671Z,97941.53
2023-05-19T14:45:50.746Z,97940.63
2023-05-19T14:50:55.403Z,97937.91
2023-05-19T14:55:59.078Z,97934.03
2023-05-19T15:01:04.030Z,97934.28
2023-05-19T15:06:10.846Z,97926.00
2023-05-19T15:11:14.346Z,97927.50
2023-05-19T15:16:19.049Z,97923.59
2023-05-19T15:21:23.098Z,97925.94
2023-05-19T15:26:27.649Z,97924.25
2023-05-19T15:31:36.697Z,97912.44
2023-05-19T15:36:41.822Z,97921.91
2023-05-19T15:41:45.666Z,97910.50
2023-05-19T15:46:51.291Z,97915.31
2023-05-19T15:51:54.940Z,97910.72
2023-05-19T15:56:58.762Z,97902.88
2023-05-19T16:02:04.056Z,97896.84
2023-05-19T16:07:07.565Z,97890.22
2023-05-19T16:12:11.185Z,97890.41
2023-05-19T16:17:16.132Z,97891.16
2023-05-19T16:22:20.325Z,97891.28
2023-05-19T16:27:24.715Z,97902.47
2023-05-19T16:32:29.523Z,97894.69
2023-05-19T16:37:32.921Z,97892.50
2023-05-19T16:42:36.620Z,97891.03
2023-05-19T16:47:41.855Z,97887.56
2023-05-19T16:52:45.361Z,97889.59
2023-05-19T16:57:48.975Z,97890.88
2023-05-19T17:02:53.891Z,97900.03
2023-05-19T17:07:57.187Z,97896.44
2023-05-19T17:13:00.567Z,97890.34
2023-05-19T17:18:06.021Z,97894.38
2023-05-19T17:23:09.536Z,97897.06
2023-05-19T17:28:12.712Z,97903.75
2023-05-19T17:33:17.605Z,97913.84
2023-05-19T17:38:20.817Z,97906.94
2023-05-19T17:43:24.052Z,97903.41
2023-05-19T17:48:28.915Z,97908.31
2023-05-19T17:53:33.484Z,97909.38
2023-05-19T17:58:37.821Z,97905.44
2023-05-19T18:03:49.529Z,97906.94
2023-05-19T18:08:54.805Z,97905.88
2023-05-19T18:13:58.944Z,97911.66
2023-05-19T18:19:04.594Z,97910.84
2023-05-19T18:24:08.555Z,97910.84
2023-05-19T18:29:12.432Z,97911.22
2023-05-19T18:34:17.164Z,97909.13
2023-05-19T18:39:20.576Z,97907.75
2023-05-19T18:44:24.401Z,97910.03
2023-05-19T18:49:29.459Z,97915.38
2023-05-19T18:54:32.832Z,97912.56
2023-05-19T18:59:36.414Z,97912.84
2023-05-19T19:04:41.020Z,97928.72
2023-05-19T19:09:44.802Z,97929.00
2023-05-19T19:14:48.104Z,97931.22
2023-05-19T19:19:53.001Z,97931.53
2023-05-19T19:24:56.441Z,97938.97
2023-05-19T19:29:59.801Z,97930.97
2023-05-19T19:35:04.824Z,97943.34
2023-05-19T19:40:09.206Z,97946.00
2023-05-19T19:45:15.532Z,97947.19
2023-05-19T19:50:20.686Z,97945.50
2023-05-19T19:55:24.048Z,97943.97
2023-05-19T20:00:27.184Z,97954.25
2023-05-19T20:05:31.874Z,97953.03
2023-05-19T20:10:35.494Z,97956.94
2023-05-19T20:15:38.922Z,97956.25
2023-05-19T20:20:44.405Z,97954.72
2023-05-19T20:26:02.977Z,97958.44
2023-05-19T20:31:12.920Z,97961.88
2023-05-19T20:36:17.682Z,97960.28
2023-05-19T20:41:21.265Z,97955.88
2023-05-19T20:46:24.762Z,97956.94
2023-05-19T20:51:29.492Z,97960.84
2023-05-19T20:56:32.988Z,97953.94
2023-05-19T21:01:37.264Z,97964.84
2023-05-19T21:06:43.356Z,97963.94
2023-05-19T21:11:47.907Z,97973.75
2023-05-19T21:16:53.938Z,97969.72
2023-05-19T21:21:58.856Z,97957.66
2023-05-19T21:27:02.168Z,97962.53
2023-05-19T21:32:06.675Z,97961.75
2023-05-19T21:37:11.433Z,97958.81
2023-05-19T21:42:15.097Z,97957.25
2023-05-19T21:47:18.439Z,97971.00
2023-05-19T21:52:23.276Z,97971.38
2023-05-19T21:57:26.967Z,97968.69
2023-05-19T22:02:30.434Z,97976.72
2023-05-19T22:07:35.388Z,97980.66
2023-05-19T22:12:38.762Z,97977.66
2023-05-19T22:17:42.279Z,97985.81
2023-05-19T22:22:47.040Z,97979.53
2023-05-19T22:27:50.480Z,97987.63
2023-05-19T22:32:53.881Z,97989.09
2023-05-19T22:37:58.517Z,97999.00
2023-05-19T22:43:01.815Z,97986.56
2023-05-19T22:48:05.519Z,97985.97
2023-05-19T22:53:10.420Z,97983.16
2023-05-19T22:58:13.810Z,97980.78
2023-05-19T23:03:18.261Z,97984.34
2023-05-19T23:08:23.068Z,97978.38
2023-05-19T23:13:26.341Z,97984.25
2023-05-19T23:18:29.521Z,97973.91
2023-05-19T23:23:35.953Z,97962.75
2023-05-19T23:28:39.316Z,97967.38
2023-05-19T23:33:42.764Z,97963.97
2023-05-19T23:38:47.625Z,97964.03
2023-05-19T23:43:50.836Z,97964.00
2023-05-19T23:48:54.128Z,97966.38
2023-05-19T23:53:59.038Z,97962.44
2023-05-19T23:59:02.589Z,97953.16
